sensor_id;sensor_type;location;lat;lon;timestamp;pressure;altitude;pressure_sealevel;temperature;humidity
25759;BME280;13604;52.496;13.456;2023-04-02T00:02:30;100808.47;;;1.90;100.00
25759;BME280;13604;52.496;13.456;2023-04-02T00:07:41;100825.28;;;1.97;100.00
25759;BME280;13604;52.496;13.456;2023-04-02T00:10:28;100825.03;;;1.94;100.00
25759;BME280;13604;52.496;13.456;2023-04-02T00:13:05;100833.91;;;1.87;100.00
25759;BME280;13604;52.496;13.456;2023-04-02T00:15:43;100834.31;;;1.81;100.00
25759;BME280;13604;52.496;13.456;2023-04-02T00:18:14;100836.00;;;1.81;100.00
25759;BME280;13604;52.496;13.456;2023-04-02T00:20:45;100841.13;;;1.81;100.00
25759;BME280;13604;52.496;13.456;2023-04-02T00:23:12;100817.75;;;1.68;100.00
25759;BME280;13604;52.496;13.456;2023-04-02T00:25:39;100840.25;;;1.70;99.72
25759;BME280;13604;52.496;13.456;2023-04-02T00:28:12;100830.59;;;1.68;100.00
25759;BME280;13604;52.496;13.456;2023-04-02T00:30:46;100846.50;;;1.74;99.08
25759;BME280;13604;52.496;13.456;2023-04-02T00:33:16;100859.75;;;1.68;98.19
25759;BME280;13604;52.496;13.456;2023-04-02T00:35:42;100822.94;;;1.47;99.06
25759;BME280;13604;52.496;13.456;2023-04-02T00:38:33;100840.03;;;1.46;98.50
25759;BME280;13604;52.496;13.456;2023-04-02T00:41:02;100865.69;;;1.57;97.79
25759;BME280;13604;52.496;13.456;2023-04-02T00:43:30;100868.88;;;1.54;98.33
25759;BME280;13604;52.496;13.456;2023-04-02T00:45:59;100874.81;;;1.53;98.30
25759;BME280;13604;52.496;13.456;2023-04-02T00:48:35;100863.25;;;1.48;98.55
25759;BME280;13604;52.496;13.456;2023-04-02T00:51:23;100843.22;;;1.34;97.49
25759;BME280;13604;52.496;13.456;2023-04-02T00:53:51;100837.31;;;1.35;97.85
25759;BME280;13604;52.496;13.456;2023-04-02T00:56:24;100863.75;;;1.44;97.36
25759;BME280;13604;52.496;13.456;2023-04-02T00:58:52;100855.03;;;1.42;97.29
25759;BME280;13604;52.496;13.456;2023-04-02T01:01:23;100910.47;;;1.40;97.66
25759;BME280;13604;52.496;13.456;2023-04-02T01:03:53;100878.78;;;1.60;97.18
25759;BME280;13604;52.496;13.456;2023-04-02T01:06:22;100883.78;;;1.58;96.13
25759;BME280;13604;52.496;13.456;2023-04-02T01:08:59;100881.22;;;1.48;96.61
25759;BME280;13604;52.496;13.456;2023-04-02T01:11:53;100895.06;;;1.50;97.14
25759;BME280;13604;52.496;13.456;2023-04-02T01:14:38;100874.66;;;1.41;95.23
25759;BME280;13604;52.496;13.456;2023-04-02T01:17:25;100901.84;;;1.50;95.31
25759;BME280;13604;52.496;13.456;2023-04-02T01:22:50;100889.03;;;1.39;94.86
25759;BME280;13604;52.496;13.456;2023-04-02T01:25:22;100909.06;;;1.43;94.10
25759;BME280;13604;52.496;13.456;2023-04-02T01:28:01;100883.50;;;1.24;94.76
25759;BME280;13604;52.496;13.456;2023-04-02T01:30:30;100922.03;;;1.45;95.21
25759;BME280;13604;52.496;13.456;2023-04-02T01:32:57;100856.44;;;1.07;94.78
25759;BME280;13604;52.496;13.456;2023-04-02T01:35:23;100925.97;;;1.41;93.11
25759;BME280;13604;52.496;13.456;2023-04-02T01:38:00;100933.19;;;1.45;93.67
25759;BME280;13604;52.496;13.456;2023-04-02T01:40:40;100919.56;;;1.26;93.90
25759;BME280;13604;52.496;13.456;2023-04-02T01:45:36;100948.72;;;1.47;93.84
25759;BME280;13604;52.496;13.456;2023-04-02T01:48:05;100846.00;;;0.85;94.28
25759;BME280;13604;52.496;13.456;2023-04-02T01:50:38;100946.78;;;1.44;94.16
25759;BME280;13604;52.496;13.456;2023-04-02T01:53:09;100944.19;;;1.34;94.35
25759;BME280;13604;52.496;13.456;2023-04-02T01:55:51;100951.75;;;1.33;94.03
25759;BME280;13604;52.496;13.456;2023-04-02T01:58:19;100967.03;;;1.41;93.94
25759;BME280;13604;52.496;13.456;2023-04-02T02:00:49;100981.19;;;1.46;93.63
25759;BME280;13604;52.496;13.456;2023-04-02T02:03:16;100985.25;;;1.34;93.36
25759;BME280;13604;52.496;13.456;2023-04-02T02:05:42;100981.94;;;1.35;94.09
25759;BME280;13604;52.496;13.456;2023-04-02T02:08:21;100974.72;;;1.31;94.84
25759;BME280;13604;52.496;13.456;2023-04-02T02:10:48;101001.94;;;1.39;94.69
25759;BME280;13604;52.496;13.456;2023-04-02T02:13:14;101001.19;;;1.40;95.04
25759;BME280;13604;52.496;13.456;2023-04-02T02:15:40;101002.06;;;1.41;95.18
25759;BME280;13604;52.496;13.456;2023-04-02T02:18:05;101018.31;;;1.21;95.62
25759;BME280;13604;52.496;13.456;2023-04-02T02:20:33;101010.19;;;1.45;94.92
25759;BME280;13604;52.496;13.456;2023-04-02T02:23:00;101018.25;;;1.40;95.00
25759;BME280;13604;52.496;13.456;2023-04-02T02:25:31;101012.88;;;1.37;94.93
25759;BME280;13604;52.496;13.456;2023-04-02T02:28:07;100985.72;;;1.20;95.13
25759;BME280;13604;52.496;13.456;2023-04-02T02:30:38;101029.56;;;1.42;95.13
25759;BME280;13604;52.496;13.456;2023-04-02T02:33:19;100936.81;;;0.87;95.13
25759;BME280;13604;52.496;13.456;2023-04-02T02:35:56;101036.47;;;1.43;94.78
25759;BME280;13604;52.496;13.456;2023-04-02T02:41:01;101035.84;;;1.45;94.24
25759;BME280;13604;52.496;13.456;2023-04-02T02:43:28;101033.75;;;1.31;94.49
25759;BME280;13604;52.496;13.456;2023-04-02T02:45:55;101038.22;;;1.23;94.49
25759;BME280;13604;52.496;13.456;2023-04-02T02:48:29;101029.53;;;1.32;93.96
25759;BME280;13604;52.496;13.456;2023-04-02T02:50:57;101010.25;;;1.26;93.65
25759;BME280;13604;52.496;13.456;2023-04-02T02:53:23;101060.88;;;1.48;92.54
25759;BME280;13604;52.496;13.456;2023-04-02T02:55:53;101072.19;;;1.50;93.06
25759;BME280;13604;52.496;13.456;2023-04-02T02:58:24;101054.53;;;1.34;92.99
25759;BME280;13604;52.496;13.456;2023-04-02T03:00:52;101072.53;;;1.44;92.36
25759;BME280;13604;52.496;13.456;2023-04-02T03:03:20;101079.22;;;1.42;92.20
25759;BME280;13604;52.496;13.456;2023-04-02T03:06:02;101085.09;;;1.41;91.92
25759;BME280;13604;52.496;13.456;2023-04-02T03:08:51;101097.81;;;1.40;91.50
25759;BME280;13604;52.496;13.456;2023-04-02T03:13:52;101109.72;;;1.39;91.33
25759;BME280;13604;52.496;13.456;2023-04-02T03:16:27;101090.97;;;1.30;92.04
25759;BME280;13604;52.496;13.456;2023-04-02T03:19:28;101108.97;;;1.40;92.34
25759;BME280;13604;52.496;13.456;2023-04-02T03:22:17;101112.22;;;1.48;91.95
25759;BME280;13604;52.496;13.456;2023-04-02T03:25:01;101120.41;;;1.44;90.24
25759;BME280;13604;52.496;13.456;2023-04-02T03:27:33;101122.84;;;1.42;89.37
25759;BME280;13604;52.496;13.456;2023-04-02T03:32:41;101122.94;;;1.34;90.42
25759;BME280;13604;52.496;13.456;2023-04-02T03:38:11;101121.97;;;1.23;90.30
25759;BME280;13604;52.496;13.456;2023-04-02T03:43:30;101150.03;;;1.40;90.43
25759;BME280;13604;52.496;13.456;2023-04-02T03:46:06;101157.22;;;1.44;91.05
25759;BME280;13604;52.496;13.456;2023-04-02T03:48:48;101100.66;;;1.14;91.44
25759;BME280;13604;52.496;13.456;2023-04-02T03:51:22;101159.44;;;1.50;91.12
25759;BME280;13604;52.496;13.456;2023-04-02T03:53:48;101128.41;;;1.28;91.23
25759;BME280;13604;52.496;13.456;2023-04-02T03:56:24;101148.31;;;1.31;91.06
25759;BME280;13604;52.496;13.456;2023-04-02T03:59:10;101154.34;;;1.31;90.69
25759;BME280;13604;52.496;13.456;2023-04-02T04:01:43;101155.88;;;1.29;90.62
25759;BME280;13604;52.496;13.456;2023-04-02T04:04:17;101171.47;;;1.41;90.74
25759;BME280;13604;52.496;13.456;2023-04-02T04:06:45;101172.34;;;1.41;90.68
25759;BME280;13604;52.496;13.456;2023-04-02T04:09:30;101164.63;;;1.31;90.18
25759;BME280;13604;52.496;13.456;2023-04-02T04:12:13;101195.88;;;1.46;90.54
25759;BME280;13604;52.496;13.456;2023-04-02T04:14:50;101190.69;;;1.36;90.15
25759;BME280;13604;52.496;13.456;2023-04-02T04:17:25;101195.06;;;1.37;89.98
25759;BME280;13604;52.496;13.456;2023-04-02T04:20:08;101210.59;;;1.38;89.97
25759;BME280;13604;52.496;13.456;2023-04-02T04:22:38;101220.22;;;1.41;89.83
25759;BME280;13604;52.496;13.456;2023-04-02T04:25:06;101219.06;;;1.37;90.53
25759;BME280;13604;52.496;13.456;2023-04-02T04:28:02;101202.81;;;1.28;90.39
25759;BME280;13604;52.496;13.456;2023-04-02T04:30:52;101213.50;;;1.33;91.22
25759;BME280;13604;52.496;13.456;2023-04-02T04:33:26;101245.41;;;1.45;91.01
25759;BME280;13604;52.496;13.456;2023-04-02T04:35:59;101245.41;;;1.45;90.64
25759;BME280;13604;52.496;13.456;2023-04-02T04:38:34;101239.50;;;1.46;91.24
25759;BME280;13604;52.496;13.456;2023-04-02T04:41:15;101251.72;;;1.49;90.98
25759;BME280;13604;52.496;13.456;2023-04-02T04:43:45;101253.66;;;1.51;91.55
25759;BME280;13604;52.496;13.456;2023-04-02T04:46:20;101145.75;;;0.82;91.82
25759;BME280;13604;52.496;13.456;2023-04-02T04:48:52;101262.31;;;1.43;91.37
25759;BME280;13604;52.496;13.456;2023-04-02T04:51:45;101263.31;;;1.54;91.64
25759;BME280;13604;52.496;13.456;2023-04-02T04:54:13;101277.16;;;1.56;91.59
25759;BME280;13604;52.496;13.456;2023-04-02T04:56:39;101279.72;;;1.56;91.49
25759;BME280;13604;52.496;13.456;2023-04-02T04:59:24;101264.75;;;1.41;91.39
25759;BME280;13604;52.496;13.456;2023-04-02T05:01:56;101282.56;;;1.59;91.20
25759;BME280;13604;52.496;13.456;2023-04-02T05:04:34;101290.19;;;1.68;91.63
25759;BME280;13604;52.496;13.456;2023-04-02T05:07:22;101275.38;;;1.55;91.71
25759;BME280;13604;52.496;13.456;2023-04-02T05:09:55;101296.13;;;1.67;91.60
25759;BME280;13604;52.496;13.456;2023-04-02T05:12:41;101286.53;;;1.55;90.88
25759;BME280;13604;52.496;13.456;2023-04-02T05:18:18;101315.25;;;1.70;91.09
25759;BME280;13604;52.496;13.456;2023-04-02T05:20:58;101325.25;;;1.67;91.44
25759;BME280;13604;52.496;13.456;2023-04-02T05:23:29;101306.56;;;1.59;91.31
25759;BME280;13604;52.496;13.456;2023-04-02T05:26:06;101318.72;;;1.71;91.11
25759;BME280;13604;52.496;13.456;2023-04-02T05:28:44;101327.81;;;1.67;91.17
25759;BME280;13604;52.496;13.456;2023-04-02T05:31:14;101315.16;;;1.79;91.65
25759;BME280;13604;52.496;13.456;2023-04-02T05:33:45;101336.03;;;1.92;90.42
25759;BME280;13604;52.496;13.456;2023-04-02T05:36:18;101324.97;;;1.83;88.32
25759;BME280;13604;52.496;13.456;2023-04-02T05:38:45;101341.72;;;1.98;88.38
25759;BME280;13604;52.496;13.456;2023-04-02T05:41:21;101270.09;;;1.53;87.61
25759;BME280;13604;52.496;13.456;2023-04-02T05:43:50;101348.41;;;1.96;87.56
25759;BME280;13604;52.496;13.456;2023-04-02T05:46:25;101359.25;;;2.02;86.92
25759;BME280;13604;52.496;13.456;2023-04-02T05:48:55;101354.47;;;2.07;85.84
25759;BME280;13604;52.496;13.456;2023-04-02T05:51:35;101355.03;;;2.13;85.76
25759;BME280;13604;52.496;13.456;2023-04-02T05:54:05;101333.94;;;2.07;84.30
25759;BME280;13604;52.496;13.456;2023-04-02T05:56:40;101374.16;;;2.36;82.97
25759;BME280;13604;52.496;13.456;2023-04-02T05:59:14;101349.56;;;2.19;82.14
25759;BME280;13604;52.496;13.456;2023-04-02T06:01:48;101335.44;;;2.24;82.21
25759;BME280;13604;52.496;13.456;2023-04-02T06:04:21;101359.13;;;2.30;82.83
25759;BME280;13604;52.496;13.456;2023-04-02T06:06:57;101371.47;;;2.45;83.22
25759;BME280;13604;52.496;13.456;2023-04-02T06:12:00;101387.31;;;2.49;82.63
25759;BME280;13604;52.496;13.456;2023-04-02T06:14:30;101379.72;;;2.41;81.63
25759;BME280;13604;52.496;13.456;2023-04-02T06:16:56;101417.47;;;2.71;81.98
25759;BME280;13604;52.496;13.456;2023-04-02T06:19:31;101385.03;;;2.63;81.22
25759;BME280;13604;52.496;13.456;2023-04-02T06:22:08;101390.13;;;2.71;78.77
25759;BME280;13604;52.496;13.456;2023-04-02T06:24:37;101413.31;;;2.92;77.77
25759;BME280;13604;52.496;13.456;2023-04-02T06:27:05;101385.63;;;2.89;77.58
25759;BME280;13604;52.496;13.456;2023-04-02T06:29:36;101424.41;;;3.11;76.06
25759;BME280;13604;52.496;13.456;2023-04-02T06:32:09;101430.72;;;3.15;76.94
25759;BME280;13604;52.496;13.456;2023-04-02T06:34:37;101431.66;;;3.36;75.73
25759;BME280;13604;52.496;13.456;2023-04-02T06:37:13;101438.97;;;3.31;76.07
25759;BME280;13604;52.496;13.456;2023-04-02T06:39:39;101440.41;;;3.48;75.66
25759;BME280;13604;52.496;13.456;2023-04-02T06:42:10;101432.31;;;3.54;75.82
25759;BME280;13604;52.496;13.456;2023-04-02T06:44:37;101447.63;;;3.73;75.25
25759;BME280;13604;52.496;13.456;2023-04-02T06:49:48;101463.09;;;3.94;74.35
25759;BME280;13604;52.496;13.456;2023-04-02T06:52:23;101467.44;;;4.15;73.65
25759;BME280;13604;52.496;13.456;2023-04-02T06:54:49;101448.59;;;4.27;73.07
25759;BME280;13604;52.496;13.456;2023-04-02T06:57:15;101473.13;;;4.54;72.54
25759;BME280;13604;52.496;13.456;2023-04-02T06:59:40;101471.00;;;5.03;71.93
25759;BME280;13604;52.496;13.456;2023-04-02T07:02:21;101475.28;;;5.02;69.99
25759;BME280;13604;52.496;13.456;2023-04-02T07:04:48;101476.00;;;5.33;69.24
25759;BME280;13604;52.496;13.456;2023-04-02T07:07:14;101480.50;;;5.70;67.64
25759;BME280;13604;52.496;13.456;2023-04-02T07:09:39;101468.34;;;5.69;66.67
25759;BME280;13604;52.496;13.456;2023-04-02T07:12:12;101480.56;;;5.48;64.00
25759;BME280;13604;52.496;13.456;2023-04-02T07:14:37;101488.72;;;5.20;64.90
25759;BME280;13604;52.496;13.456;2023-04-02T07:17:02;101488.84;;;5.44;64.22
25759;BME280;13604;52.496;13.456;2023-04-02T07:19:28;101491.44;;;5.78;64.16
25759;BME280;13604;52.496;13.456;2023-04-02T07:21:53;101326.88;;;5.43;63.73
25759;BME280;13604;52.496;13.456;2023-04-02T07:24:19;101479.00;;;6.41;62.72
25759;BME280;13604;52.496;13.456;2023-04-02T07:26:44;101505.03;;;6.92;61.69
25759;BME280;13604;52.496;13.456;2023-04-02T07:29:13;101491.47;;;6.82;59.89
25759;BME280;13604;52.496;13.456;2023-04-02T07:31:39;101488.75;;;6.57;60.14
25759;BME280;13604;52.496;13.456;2023-04-02T07:34:08;101497.41;;;6.81;59.70
25759;BME280;13604;52.496;13.456;2023-04-02T07:36:34;101500.84;;;7.17;57.72
25759;BME280;13604;52.496;13.456;2023-04-02T07:38:59;101500.13;;;7.32;57.87
25759;BME280;13604;52.496;13.456;2023-04-02T07:41:25;101515.03;;;7.11;57.94
25759;BME280;13604;52.496;13.456;2023-04-02T07:43:50;101525.91;;;6.58;57.63
25759;BME280;13604;52.496;13.456;2023-04-02T07:46:15;101498.09;;;6.32;58.23
25759;BME280;13604;52.496;13.456;2023-04-02T07:48:43;101528.09;;;6.30;58.65
25759;BME280;13604;52.496;13.456;2023-04-02T07:51:35;101527.97;;;5.82;59.63
25759;BME280;13604;52.496;13.456;2023-04-02T07:54:01;101517.00;;;5.41;60.63
25759;BME280;13604;52.496;13.456;2023-04-02T07:56:26;101546.03;;;5.48;62.14
25759;BME280;13604;52.496;13.456;2023-04-02T07:58:52;101543.22;;;5.13;60.88
25759;BME280;13604;52.496;13.456;2023-04-02T08:01:20;101528.59;;;5.02;61.38
25759;BME280;13604;52.496;13.456;2023-04-02T08:03:48;101543.78;;;5.09;62.33
25759;BME280;13604;52.496;13.456;2023-04-02T08:06:13;101500.09;;;4.57;63.47
25759;BME280;13604;52.496;13.456;2023-04-02T08:08:39;101547.47;;;4.90;63.58
25759;BME280;13604;52.496;13.456;2023-04-02T08:11:05;101549.13;;;4.90;64.35
25759;BME280;13604;52.496;13.456;2023-04-02T08:13:30;101551.50;;;4.76;64.54
25759;BME280;13604;52.496;13.456;2023-04-02T08:15:57;101565.94;;;4.85;64.99
25759;BME280;13604;52.496;13.456;2023-04-02T08:18:23;101571.88;;;4.84;65.58
25759;BME280;13604;52.496;13.456;2023-04-02T08:20:48;101583.81;;;5.04;66.83
25759;BME280;13604;52.496;13.456;2023-04-02T08:23:14;101583.53;;;5.11;65.16
25759;BME280;13604;52.496;13.456;2023-04-02T08:25:41;101582.34;;;5.18;64.71
25759;BME280;13604;52.496;13.456;2023-04-02T08:28:07;101561.44;;;5.14;63.69
25759;BME280;13604;52.496;13.456;2023-04-02T08:30:33;101578.31;;;5.76;62.02
25759;BME280;13604;52.496;13.456;2023-04-02T08:32:58;101599.28;;;6.24;60.05
25759;BME280;13604;52.496;13.456;2023-04-02T08:35:24;101575.06;;;6.00;59.76
25759;BME280;13604;52.496;13.456;2023-04-02T08:37:49;101595.13;;;6.96;58.35
25759;BME280;13604;52.496;13.456;2023-04-02T08:40:26;101586.31;;;7.17;56.61
25759;BME280;13604;52.496;13.456;2023-04-02T08:43:08;101600.75;;;6.78;58.19
25759;BME280;13604;52.496;13.456;2023-04-02T08:45:58;101616.81;;;6.62;58.86
25759;BME280;13604;52.496;13.456;2023-04-02T08:48:26;101624.59;;;6.17;59.91
25759;BME280;13604;52.496;13.456;2023-04-02T08:50:51;101606.78;;;5.87;60.17
25759;BME280;13604;52.496;13.456;2023-04-02T08:53:30;101606.66;;;5.86;61.02
25759;BME280;13604;52.496;13.456;2023-04-02T08:55:59;101631.06;;;6.12;59.69
25759;BME280;13604;52.496;13.456;2023-04-02T08:58:41;101636.53;;;6.26;59.78
25759;BME280;13604;52.496;13.456;2023-04-02T09:01:20;101617.84;;;6.19;59.25
25759;BME280;13604;52.496;13.456;2023-04-02T09:03:49;101654.38;;;6.45;59.22
25759;BME280;13604;52.496;13.456;2023-04-02T09:06:18;101642.78;;;6.40;59.39
25759;BME280;13604;52.496;13.456;2023-04-02T09:08:46;101661.78;;;6.41;58.65
25759;BME280;13604;52.496;13.456;2023-04-02T09:12:04;101660.75;;;6.39;58.73
25759;BME280;13604;52.496;13.456;2023-04-02T09:14:41;101658.19;;;5.95;59.08
25759;BME280;13604;52.496;13.456;2023-04-02T09:17:23;101663.88;;;5.68;59.51
25759;BME280;13604;52.496;13.456;2023-04-02T09:19:54;101667.69;;;6.62;58.56
25759;BME280;13604;52.496;13.456;2023-04-02T09:22:22;101665.97;;;7.81;57.03
25759;BME280;13604;52.496;13.456;2023-04-02T09:24:52;101665.19;;;9.76;50.37
25759;BME280;13604;52.496;13.456;2023-04-02T09:27:21;101670.41;;;9.63;48.10
25759;BME280;13604;52.496;13.456;2023-04-02T09:29:55;101675.31;;;8.53;49.84
25759;BME280;13604;52.496;13.456;2023-04-02T09:32:43;101672.16;;;7.95;51.60
25759;BME280;13604;52.496;13.456;2023-04-02T09:35:15;101684.34;;;8.96;51.50
25759;BME280;13604;52.496;13.456;2023-04-02T09:37:42;101680.94;;;9.24;48.82
25759;BME280;13604;52.496;13.456;2023-04-02T09:40:30;101685.63;;;12.07;45.69
25759;BME280;13604;52.496;13.456;2023-04-02T09:43:15;101686.00;;;14.26;38.26
25759;BME280;13604;52.496;13.456;2023-04-02T09:45:42;101665.47;;;14.95;37.67
25759;BME280;13604;52.496;13.456;2023-04-02T09:48:26;101689.69;;;15.53;35.64
25759;BME280;13604;52.496;13.456;2023-04-02T09:51:17;101704.50;;;17.73;33.38
25759;BME280;13604;52.496;13.456;2023-04-02T09:56:21;101695.84;;;18.66;30.88
25759;BME280;13604;52.496;13.456;2023-04-02T09:59:06;101700.81;;;17.11;31.59
25759;BME280;13604;52.496;13.456;2023-04-02T10:01:39;101712.44;;;15.75;33.61
25759;BME280;13604;52.496;13.456;2023-04-02T10:04:29;101716.72;;;14.67;35.23
25759;BME280;13604;52.496;13.456;2023-04-02T10:06:52;101707.13;;;13.72;36.40
25759;BME280;13604;52.496;13.456;2023-04-02T10:09:30;101723.84;;;12.21;39.96
25759;BME280;13604;52.496;13.456;2023-04-02T10:11:57;101739.78;;;10.89;42.32
25759;BME280;13604;52.496;13.456;2023-04-02T10:14:27;101727.16;;;9.97;43.44
25759;BME280;13604;52.496;13.456;2023-04-02T10:16:58;101735.94;;;9.44;45.86
25759;BME280;13604;52.496;13.456;2023-04-02T10:19:32;101730.91;;;9.87;45.18
25759;BME280;13604;52.496;13.456;2023-04-02T10:22:03;101749.38;;;11.64;43.64
25759;BME280;13604;52.496;13.456;2023-04-02T10:24:30;101697.56;;;12.34;40.23
25759;BME280;13604;52.496;13.456;2023-04-02T10:27:06;101738.72;;;12.22;40.65
25759;BME280;13604;52.496;13.456;2023-04-02T10:32:22;101744.69;;;9.99;44.68
25759;BME280;13604;52.496;13.456;2023-04-02T10:35:00;101751.91;;;9.76;45.54
25759;BME280;13604;52.496;13.456;2023-04-02T10:37:43;101763.06;;;9.74;47.07
25759;BME280;13604;52.496;13.456;2023-04-02T10:40:35;101751.59;;;9.05;48.35
25759;BME280;13604;52.496;13.456;2023-04-02T10:43:33;101750.84;;;8.94;49.46
25759;BME280;13604;52.496;13.456;2023-04-02T10:46:05;101758.16;;;10.34;46.41
25759;BME280;13604;52.496;13.456;2023-04-02T10:48:44;101778.88;;;11.03;44.19
25759;BME280;13604;52.496;13.456;2023-04-02T10:51:40;101774.16;;;10.68;44.33
25759;BME280;13604;52.496;13.456;2023-04-02T10:54:40;101783.16;;;10.03;45.38
25759;BME280;13604;52.496;13.456;2023-04-02T10:59:56;101788.31;;;8.98;49.25
25759;BME280;13604;52.496;13.456;2023-04-02T11:02:34;101784.69;;;8.82;49.68
25759;BME280;13604;52.496;13.456;2023-04-02T11:05:10;101777.38;;;8.77;49.65
25759;BME280;13604;52.496;13.456;2023-04-02T11:07:48;101791.06;;;8.74;49.58
25759;BME280;13604;52.496;13.456;2023-04-02T11:10:17;101787.34;;;8.45;50.21
25759;BME280;13604;52.496;13.456;2023-04-02T11:12:50;101793.75;;;8.39;48.67
25759;BME280;13604;52.496;13.456;2023-04-02T11:15:18;101798.56;;;8.83;49.45
25759;BME280;13604;52.496;13.456;2023-04-02T11:17:44;101810.19;;;8.63;49.35
25759;BME280;13604;52.496;13.456;2023-04-02T11:20:53;101818.97;;;8.16;50.28
25759;BME280;13604;52.496;13.456;2023-04-02T11:23:20;101822.38;;;7.91;51.01
25759;BME280;13604;52.496;13.456;2023-04-02T11:25:46;101829.81;;;7.87;50.72
25759;BME280;13604;52.496;13.456;2023-04-02T11:30:38;101837.03;;;7.67;52.28
25759;BME280;13604;52.496;13.456;2023-04-02T11:35:48;101841.72;;;7.49;51.73
25759;BME280;13604;52.496;13.456;2023-04-02T11:48:42;101845.88;;;8.42;51.01
25759;BME280;13604;52.496;13.456;2023-04-02T11:51:56;101844.03;;;12.06;45.19
25759;BME280;13604;52.496;13.456;2023-04-02T11:54:03;101841.59;;;13.39;39.13
25759;BME280;13604;52.496;13.456;2023-04-02T11:56:55;101833.03;;;13.96;38.23
25759;BME280;13604;52.496;13.456;2023-04-02T12:02:35;101857.25;;;13.56;38.61
25759;BME280;13604;52.496;13.456;2023-04-02T12:05:09;101857.28;;;13.39;38.78
25759;BME280;13604;52.496;13.456;2023-04-02T12:08:01;101855.13;;;14.01;37.17
25759;BME280;13604;52.496;13.456;2023-04-02T12:10:55;101853.00;;;14.66;37.39
25759;BME280;13604;52.496;13.456;2023-04-02T12:16:13;101856.31;;;13.72;38.07
25759;BME280;13604;52.496;13.456;2023-04-02T12:18:42;101873.97;;;12.76;39.66
25759;BME280;13604;52.496;13.456;2023-04-02T12:21:14;101885.03;;;11.79;41.48
25759;BME280;13604;52.496;13.456;2023-04-02T12:23:44;101864.00;;;11.46;43.22
25759;BME280;13604;52.496;13.456;2023-04-02T12:26:26;101864.31;;;11.08;43.24
25759;BME280;13604;52.496;13.456;2023-04-02T12:28:51;101852.44;;;10.70;44.38
25759;BME280;13604;52.496;13.456;2023-04-02T12:31:20;101884.50;;;10.55;44.11
25759;BME280;13604;52.496;13.456;2023-04-02T12:33:51;101880.81;;;9.98;44.90
25759;BME280;13604;52.496;13.456;2023-04-02T12:36:19;101868.41;;;10.07;44.06
25759;BME280;13604;52.496;13.456;2023-04-02T12:38:51;101886.28;;;10.70;43.54
25759;BME280;13604;52.496;13.456;2023-04-02T12:41:26;101875.88;;;14.52;37.63
25759;BME280;13604;52.496;13.456;2023-04-02T12:44:12;101882.84;;;15.88;34.89
25759;BME280;13604;52.496;13.456;2023-04-02T12:46:39;101897.97;;;16.37;34.42
25759;BME280;13604;52.496;13.456;2023-04-02T12:49:07;101874.34;;;16.16;33.62
25759;BME280;13604;52.496;13.456;2023-04-02T12:51:38;101882.34;;;15.76;34.77
25759;BME280;13604;52.496;13.456;2023-04-02T12:54:04;101879.28;;;15.06;35.35
25759;BME280;13604;52.496;13.456;2023-04-02T12:56:30;101888.50;;;14.23;37.16
25759;BME280;13604;52.496;13.456;2023-04-02T12:58:57;101855.91;;;12.64;38.34
25759;BME280;13604;52.496;13.456;2023-04-02T13:01:28;101888.06;;;12.63;38.87
25759;BME280;13604;52.496;13.456;2023-04-02T13:04:06;101892.03;;;13.20;38.63
25759;BME280;13604;52.496;13.456;2023-04-02T13:06:33;101877.25;;;13.37;37.52
25759;BME280;13604;52.496;13.456;2023-04-02T13:09:01;101884.56;;;17.23;32.73
25759;BME280;13604;52.496;13.456;2023-04-02T13:11:33;101889.44;;;19.97;28.70
25759;BME280;13604;52.496;13.456;2023-04-02T13:14:01;101867.84;;;21.40;26.21
25759;BME280;13604;52.496;13.456;2023-04-02T13:16:32;101860.09;;;20.63;27.17
25759;BME280;13604;52.496;13.456;2023-04-02T13:19:10;101848.31;;;17.92;28.56
25759;BME280;13604;52.496;13.456;2023-04-02T13:21:35;101899.63;;;16.13;30.93
25759;BME280;13604;52.496;13.456;2023-04-02T13:24:00;101899.84;;;13.88;33.99
25759;BME280;13604;52.496;13.456;2023-04-02T13:26:27;101892.53;;;12.97;35.99
25759;BME280;13604;52.496;13.456;2023-04-02T13:31:41;101883.03;;;20.24;28.19
25759;BME280;13604;52.496;13.456;2023-04-02T13:34:06;101893.88;;;19.98;28.19
25759;BME280;13604;52.496;13.456;2023-04-02T13:36:31;101902.09;;;16.31;31.34
25759;BME280;13604;52.496;13.456;2023-04-02T13:38:57;101909.66;;;15.21;33.44
25759;BME280;13604;52.496;13.456;2023-04-02T13:41:27;101911.59;;;13.78;35.25
25759;BME280;13604;52.496;13.456;2023-04-02T13:43:54;101908.63;;;13.21;37.74
25759;BME280;13604;52.496;13.456;2023-04-02T13:46:22;101911.91;;;13.84;36.69
25759;BME280;13604;52.496;13.456;2023-04-02T13:48:49;101909.75;;;15.22;34.70
25759;BME280;13604;52.496;13.456;2023-04-02T13:51:16;101899.22;;;13.92;36.02
25759;BME280;13604;52.496;13.456;2023-04-02T13:53:43;101913.47;;;13.46;37.58
25759;BME280;13604;52.496;13.456;2023-04-02T13:56:09;101897.84;;;13.48;37.42
25759;BME280;13604;52.496;13.456;2023-04-02T13:58:35;101910.84;;;15.27;34.58
25759;BME280;13604;52.496;13.456;2023-04-02T14:01:00;101912.34;;;18.44;30.84
25759;BME280;13604;52.496;13.456;2023-04-02T14:03:26;101900.38;;;16.99;31.71
25759;BME280;13604;52.496;13.456;2023-04-02T14:06:18;101921.59;;;15.53;33.06
25759;BME280;13604;52.496;13.456;2023-04-02T14:09:11;101916.88;;;14.32;35.23
25759;BME280;13604;52.496;13.456;2023-04-02T14:12:01;101889.16;;;14.93;34.12
25759;BME280;13604;52.496;13.456;2023-04-02T14:14:43;101917.25;;;17.04;31.47
25759;BME280;13604;52.496;13.456;2023-04-02T14:25:13;101935.97;;;14.11;35.49
25759;BME280;13604;52.496;13.456;2023-04-02T14:27:57;101941.72;;;14.04;35.85
25759;BME280;13604;52.496;13.456;2023-04-02T14:33:34;101934.19;;;22.47;26.92